createdAt,value
2022-12-02T00:01:52.934Z,4.65
2022-12-02T00:04:25.126Z,4.68
2022-12-02T00:06:56.276Z,4.62
2022-12-02T00:09:32.408Z,4.63
2022-12-02T00:12:12.618Z,4.67
2022-12-02T00:14:43.159Z,4.66
2022-12-02T00:17:12.703Z,4.65
2022-12-02T00:19:41.221Z,4.64
2022-12-02T00:22:09.775Z,4.62
2022-12-02T00:24:38.611Z,4.57
2022-12-02T00:27:07.501Z,4.62
2022-12-02T00:29:36.802Z,4.61
2022-12-02T00:32:09.810Z,4.62
2022-12-02T00:34:39.448Z,4.64
2022-12-02T00:37:09.789Z,4.65
2022-12-02T00:39:38.748Z,4.59
2022-12-02T00:42:09.211Z,4.63
2022-12-02T00:44:58.779Z,4.65
2022-12-02T00:47:29.550Z,4.63
2022-12-02T00:49:59.896Z,4.67
2022-12-02T00:52:29.442Z,4.62
2022-12-02T00:54:59.223Z,4.57
2022-12-02T00:57:28.237Z,4.62
2022-12-02T00:59:57.198Z,4.62
2022-12-02T01:02:26.851Z,4.61
2022-12-02T01:04:57.887Z,4.60
2022-12-02T01:07:27.863Z,4.58
2022-12-02T01:09:58.016Z,4.60
2022-12-02T01:12:26.862Z,4.62
2022-12-02T01:14:56.340Z,4.52
2022-12-02T01:17:27.056Z,4.61
2022-12-02T01:19:57.628Z,4.64
2022-12-02T01:22:27.695Z,4.64
2022-12-02T01:24:57.623Z,4.65
2022-12-02T01:27:27.165Z,4.66
2022-12-02T01:29:56.100Z,4.69
2022-12-02T01:32:25.585Z,4.69
2022-12-02T01:34:55.033Z,4.65
2022-12-02T01:37:26.118Z,4.65
2022-12-02T01:39:55.613Z,4.65
2022-12-02T01:42:26.357Z,4.57
2022-12-02T01:44:56.021Z,4.62
2022-12-02T01:47:26.807Z,4.64
2022-12-02T01:49:56.879Z,4.57
2022-12-02T01:52:28.816Z,4.63
2022-12-02T01:54:57.442Z,4.63
2022-12-02T01:57:30.011Z,4.61
2022-12-02T01:59:59.494Z,4.60
2022-12-02T02:02:32.908Z,4.62
2022-12-02T02:05:06.605Z,4.63
2022-12-02T02:07:39.745Z,4.60
2022-12-02T02:10:11.086Z,4.55
2022-12-02T02:12:40.232Z,4.58
2022-12-02T02:15:13.821Z,4.58
2022-12-02T02:17:43.611Z,4.63
2022-12-02T02:20:17.457Z,4.64
2022-12-02T02:22:57.766Z,4.66
2022-12-02T02:25:28.294Z,4.63
2022-12-02T02:28:01.642Z,4.63
2022-12-02T02:30:33.562Z,4.62
2022-12-02T02:33:05.842Z,4.61
2022-12-02T02:35:37.587Z,4.63
2022-12-02T02:38:11.562Z,4.64
2022-12-02T02:40:45.985Z,4.60
2022-12-02T02:43:16.851Z,4.60
2022-12-02T02:45:47.159Z,4.63
2022-12-02T02:48:18.796Z,4.66
2022-12-02T02:50:50.443Z,4.63
2022-12-02T02:53:24.569Z,4.65
2022-12-02T02:55:55.559Z,4.65
2022-12-02T02:58:28.428Z,4.63
2022-12-02T03:01:03.030Z,4.65
2022-12-02T03:03:36.451Z,4.61
2022-12-02T03:06:10.980Z,4.58
2022-12-02T03:08:46.576Z,4.63
2022-12-02T03:11:17.971Z,4.66
2022-12-02T03:13:51.661Z,4.62
2022-12-02T03:16:25.513Z,4.54
2022-12-02T03:18:57.556Z,4.56
2022-12-02T03:21:28.998Z,4.58
2022-12-02T03:24:02.705Z,4.61
2022-12-02T03:26:35.111Z,4.63
2022-12-02T03:29:07.263Z,4.63
2022-12-02T03:31:36.865Z,4.64
2022-12-02T03:34:07.660Z,4.58
2022-12-02T03:36:37.243Z,4.62
2022-12-02T03:39:07.719Z,4.62
2022-12-02T03:41:38.446Z,4.61
2022-12-02T03:44:08.654Z,4.63
2022-12-02T03:46:38.879Z,4.63
2022-12-02T03:49:09.457Z,4.66
2022-12-02T03:51:38.565Z,4.64
2022-12-02T03:54:08.581Z,4.66
2022-12-02T03:56:43.567Z,4.66
2022-12-02T03:59:22.481Z,4.64
2022-12-02T04:01:52.721Z,4.66
2022-12-02T04:04:22.880Z,4.62
2022-12-02T04:06:53.165Z,4.63
2022-12-02T04:09:23.317Z,4.62
2022-12-02T04:11:54.090Z,4.62
2022-12-02T04:14:23.053Z,4.64
2022-12-02T04:16:52.868Z,4.61
2022-12-02T04:19:22.266Z,4.64
2022-12-02T04:21:51.728Z,4.64
2022-12-02T04:24:21.648Z,4.62
2022-12-02T04:26:53.594Z,4.52
2022-12-02T04:29:22.934Z,4.54
2022-12-02T04:31:52.360Z,4.55
2022-12-02T04:34:22.418Z,4.57
2022-12-02T04:36:52.482Z,4.53
2022-12-02T04:39:22.690Z,4.54
2022-12-02T04:41:54.274Z,4.55
2022-12-02T04:44:23.288Z,4.52
2022-12-02T04:46:53.432Z,4.49
2022-12-02T04:49:23.374Z,4.48
2022-12-02T04:51:53.390Z,4.46
2022-12-02T04:54:23.972Z,4.48
2022-12-02T04:56:55.235Z,4.51
2022-12-02T04:59:24.898Z,4.47
2022-12-02T05:01:54.888Z,4.49
2022-12-02T05:04:23.924Z,4.48
2022-12-02T05:06:53.926Z,4.46
2022-12-02T05:09:25.242Z,4.45
2022-12-02T05:11:56.069Z,4.41
2022-12-02T05:14:25.951Z,4.40
2022-12-02T05:16:55.411Z,4.38
2022-12-02T05:19:25.519Z,4.36
2022-12-02T05:21:54.429Z,4.38
2022-12-02T05:24:24.894Z,4.34
2022-12-02T05:26:55.899Z,4.27
2022-12-02T05:29:27.460Z,4.33
2022-12-02T05:31:57.668Z,4.28
2022-12-02T05:34:27.652Z,4.30
2022-12-02T05:36:56.555Z,4.31
2022-12-02T05:39:26.068Z,4.32
2022-12-02T05:42:02.871Z,4.33
2022-12-02T05:44:39.448Z,4.33
2022-12-02T05:47:13.436Z,4.35
2022-12-02T05:49:45.434Z,4.35
2022-12-02T05:52:25.430Z,4.32
2022-12-02T05:54:58.491Z,4.37
2022-12-02T05:57:31.519Z,4.36
2022-12-02T06:00:16.315Z,4.38
2022-12-02T06:02:49.900Z,4.33
2022-12-02T06:05:25.422Z,4.29
2022-12-02T06:07:59.180Z,4.33
2022-12-02T06:10:32.084Z,4.34
2022-12-02T06:13:11.813Z,4.33
2022-12-02T06:15:41.780Z,4.28
2022-12-02T06:18:16.698Z,4.28
2022-12-02T06:20:48.630Z,4.29
2022-12-02T06:23:22.017Z,4.28
2022-12-02T06:25:54.535Z,4.28
2022-12-02T06:28:31.901Z,4.29
2022-12-02T06:31:10.800Z,4.32
2022-12-02T06:33:41.990Z,4.35
2022-12-02T06:36:15.568Z,4.33
2022-12-02T06:38:50.758Z,4.37
2022-12-02T06:41:25.415Z,4.38
2022-12-02T06:44:18.786Z,4.41
2022-12-02T06:46:48.694Z,4.37
2022-12-02T06:49:22.667Z,4.36
2022-12-02T06:51:58.633Z,4.38
2022-12-02T06:54:32.008Z,4.37
2022-12-02T06:57:05.165Z,4.34
2022-12-02T06:59:35.741Z,4.33
2022-12-02T07:02:20.614Z,4.32
2022-12-02T07:04:52.648Z,4.36
2022-12-02T07:07:25.063Z,4.37
2022-12-02T07:09:57.668Z,4.32
2022-12-02T07:12:38.208Z,4.37
2022-12-02T07:15:28.650Z,4.36
2022-12-02T07:18:02.565Z,4.34
2022-12-02T07:20:36.792Z,4.35
2022-12-02T07:23:20.835Z,4.29
2022-12-02T07:25:54.159Z,4.22
2022-12-02T07:28:30.253Z,4.23
2022-12-02T07:31:04.157Z,4.28
2022-12-02T07:33:34.495Z,4.24
2022-12-02T07:36:04.232Z,4.25
2022-12-02T07:39:04.157Z,4.21
2022-12-02T07:41:22.232Z,4.25
2022-12-02T07:43:52.647Z,4.28
2022-12-02T07:46:23.689Z,4.27
2022-12-02T07:48:57.166Z,4.27
2022-12-02T07:51:26.577Z,4.21
2022-12-02T07:53:56.693Z,4.24
2022-12-02T07:56:25.772Z,4.27
2022-12-02T07:59:12.745Z,4.27
2022-12-02T08:01:45.582Z,4.29
2022-12-02T08:04:14.856Z,4.30
2022-12-02T08:06:44.406Z,4.31
2022-12-02T08:09:14.078Z,4.29
2022-12-02T08:11:44.017Z,4.29
2022-12-02T08:14:13.082Z,4.34
2022-12-02T08:16:44.059Z,4.36
2022-12-02T08:19:13.355Z,4.29
2022-12-02T08:21:43.060Z,4.25
2022-12-02T08:24:11.508Z,4.23
2022-12-02T08:26:43.625Z,4.27
2022-12-02T08:29:13.334Z,4.30
2022-12-02T08:31:45.373Z,4.30
2022-12-02T08:34:14.786Z,4.31
2022-12-02T08:36:44.310Z,4.32
2022-12-02T08:39:14.711Z,4.34
2022-12-02T08:41:43.695Z,4.32
2022-12-02T08:44:14.342Z,4.35
2022-12-02T08:46:50.974Z,4.38
2022-12-02T08:49:24.043Z,4.42
2022-12-02T08:51:53.429Z,4.44
2022-12-02T08:54:22.486Z,4.43
2022-12-02T08:56:52.122Z,4.43
2022-12-02T08:59:20.925Z,4.43
2022-12-02T09:01:53.007Z,4.46
2022-12-02T09:04:22.816Z,4.46
2022-12-02T09:06:52.980Z,4.29
2022-12-02T09:09:22.551Z,4.33
2022-12-02T09:11:52.049Z,4.29
2022-12-02T09:14:21.703Z,4.30
2022-12-02T09:16:52.189Z,4.36
2022-12-02T09:19:21.203Z,4.33
2022-12-02T09:21:49.835Z,4.36
2022-12-02T09:24:19.858Z,4.40
2022-12-02T09:26:49.870Z,4.43
2022-12-02T09:29:19.791Z,4.43
2022-12-02T09:31:50.668Z,4.46
2022-12-02T09:34:20.760Z,4.49
2022-12-02T09:36:50.043Z,4.51
2022-12-02T09:39:19.487Z,4.48
2022-12-02T09:41:49.303Z,4.50
2022-12-02T09:44:19.100Z,4.48
2022-12-02T09:46:49.189Z,4.49
2022-12-02T09:49:19.577Z,4.51
2022-12-02T09:51:50.746Z,4.47
2022-12-02T09:54:20.394Z,4.42
2022-12-02T09:56:50.540Z,4.43
2022-12-02T09:59:19.875Z,4.47
2022-12-02T10:01:50.906Z,4.48
2022-12-02T10:04:23.428Z,4.47
2022-12-02T10:06:52.888Z,4.49
2022-12-02T10:09:32.024Z,4.50
2022-12-02T10:12:01.771Z,4.49
2022-12-02T10:14:30.861Z,4.48
2022-12-02T10:17:00.397Z,4.44
2022-12-02T10:19:32.495Z,4.48
2022-12-02T10:22:01.600Z,4.49
2022-12-02T10:24:39.763Z,4.49
2022-12-02T10:27:09.614Z,4.49
2022-12-02T10:29:40.350Z,4.49
2022-12-02T10:32:23.449Z,4.48
2022-12-02T10:35:10.125Z,4.43
2022-12-02T10:37:40.522Z,4.47
2022-12-02T10:40:17.058Z,4.49
2022-12-02T10:42:47.165Z,4.51
2022-12-02T10:45:22.018Z,4.51
2022-12-02T10:48:03.469Z,4.52
2022-12-02T10:50:34.553Z,4.50
2022-12-02T10:53:13.346Z,4.39
2022-12-02T10:55:42.533Z,4.38
2022-12-02T10:58:16.725Z,4.41
2022-12-02T11:00:47.243Z,4.40
2022-12-02T11:03:16.433Z,4.42
2022-12-02T11:05:48.043Z,4.45
2022-12-02T11:08:23.971Z,4.44
2022-12-02T11:11:16.469Z,4.45
2022-12-02T11:13:58.277Z,4.44
2022-12-02T11:17:07.452Z,4.48
2022-12-02T11:19:48.594Z,4.47
2022-12-02T11:23:20.538Z,4.47
2022-12-02T11:26:00.998Z,4.49
2022-12-02T11:29:19.146Z,4.49
2022-12-02T11:32:17.491Z,4.43
2022-12-02T11:37:47.691Z,4.41
2022-12-02T11:41:00.960Z,4.44
2022-12-02T11:44:23.932Z,4.50
2022-12-02T11:46:56.820Z,4.53
2022-12-02T11:49:38.107Z,4.56
2022-12-02T11:52:19.495Z,4.57
2022-12-02T11:55:05.745Z,4.57
2022-12-02T11:57:48.724Z,4.57
2022-12-02T12:00:37.214Z,4.60
2022-12-02T12:03:19.299Z,4.60
2022-12-02T12:06:08.201Z,4.59
2022-12-02T12:08:39.058Z,4.57
2022-12-02T12:11:25.404Z,4.54
2022-12-02T12:14:23.801Z,4.50
2022-12-02T12:17:17.734Z,4.46
2022-12-02T12:19:48.010Z,4.52
2022-12-02T12:22:28.221Z,4.54
2022-12-02T12:25:22.121Z,4.51
2022-12-02T12:27:53.848Z,4.45
2022-12-02T12:30:23.265Z,4.47
2022-12-02T12:32:52.586Z,4.49
2022-12-02T12:35:21.952Z,4.48
2022-12-02T12:37:51.923Z,4.42
2022-12-02T12:40:21.257Z,4.41
2022-12-02T12:42:52.727Z,4.39
2022-12-02T12:45:23.054Z,4.38
2022-12-02T12:47:52.504Z,4.41
2022-12-02T12:50:25.745Z,4.43
2022-12-02T12:52:57.514Z,4.41
2022-12-02T12:55:26.857Z,4.42
2022-12-02T12:57:57.954Z,4.44
2022-12-02T13:00:27.725Z,4.42
2022-12-02T13:02:57.570Z,4.45
2022-12-02T13:05:27.430Z,4.47
2022-12-02T13:07:57.291Z,4.49
2022-12-02T13:10:27.830Z,4.45
2022-12-02T13:12:58.863Z,4.41
2022-12-02T13:15:28.897Z,4.38
2022-12-02T13:17:57.357Z,4.28
2022-12-02T13:20:27.001Z,4.27
2022-12-02T13:22:56.052Z,4.20
2022-12-02T13:25:25.740Z,4.24
2022-12-02T13:27:55.146Z,4.20
2022-12-02T13:30:25.852Z,4.23
2022-12-02T13:32:55.812Z,4.20
2022-12-02T13:35:25.729Z,4.20
2022-12-02T13:37:54.718Z,4.24
2022-12-02T13:40:24.141Z,4.28
2022-12-02T13:42:52.994Z,4.26
2022-12-02T13:45:24.634Z,4.32
2022-12-02T13:47:53.717Z,4.31
2022-12-02T13:50:23.866Z,4.34
2022-12-02T13:52:52.821Z,4.37
2022-12-02T13:55:22.308Z,4.29
2022-12-02T13:57:51.249Z,4.32
2022-12-02T14:00:21.757Z,4.32
2022-12-02T14:02:53.347Z,4.36
2022-12-02T14:05:22.937Z,4.38
2022-12-02T14:07:52.828Z,4.34
2022-12-02T14:10:22.119Z,4.34
2022-12-02T14:12:53.988Z,4.36
2022-12-02T14:15:24.184Z,4.34
2022-12-02T14:17:55.425Z,4.36
2022-12-02T14:20:25.468Z,4.26
2022-12-02T14:22:55.432Z,4.27
2022-12-02T14:25:24.437Z,4.26
2022-12-02T14:27:54.475Z,4.28
2022-12-02T14:30:23.620Z,4.25
2022-12-02T14:32:54.378Z,4.22
2022-12-02T14:35:24.028Z,4.21
2022-12-02T14:37:54.012Z,4.25
2022-12-02T14:40:23.985Z,4.28
2022-12-02T14:42:53.596Z,4.25
2022-12-02T14:45:24.491Z,4.22
2022-12-02T14:47:55.161Z,4.24
2022-12-02T14:50:27.934Z,4.17
2022-12-02T14:52:58.429Z,4.18
2022-12-02T14:55:27.852Z,4.17
2022-12-02T14:57:57.862Z,4.09
2022-12-02T15:00:26.546Z,4.09
2022-12-02T15:02:56.849Z,4.14
2022-12-02T15:05:26.181Z,4.16
2022-12-02T15:07:54.914Z,4.13
2022-12-02T15:10:23.543Z,4.15
2022-12-02T15:12:52.728Z,4.16
2022-12-02T15:15:39.588Z,4.16
2022-12-02T15:18:11.868Z,4.10
2022-12-02T15:20:41.325Z,4.06
2022-12-02T15:23:10.360Z,4.07
2022-12-02T15:25:40.657Z,4.06
2022-12-02T15:28:09.668Z,3.96
2022-12-02T15:30:38.620Z,3.92
2022-12-02T15:33:07.551Z,3.86
2022-12-02T15:35:37.609Z,3.90
2022-12-02T15:38:07.879Z,3.93
2022-12-02T15:40:40.203Z,3.87
2022-12-02T15:43:11.344Z,3.82
2022-12-02T15:45:41.659Z,3.82
2022-12-02T15:48:10.649Z,3.85
2022-12-02T15:50:41.917Z,3.87
2022-12-02T15:53:11.270Z,3.91
2022-12-02T15:55:40.177Z,3.91
2022-12-02T15:58:10.302Z,3.86
2022-12-02T16:00:42.376Z,3.84
2022-12-02T16:03:11.430Z,3.83
2022-12-02T16:05:42.265Z,3.85
2022-12-02T16:08:12.187Z,3.83
2022-12-02T16:10:42.016Z,3.86
2022-12-02T16:13:12.833Z,3.80
2022-12-02T16:15:42.951Z,3.82
2022-12-02T16:18:12.313Z,3.82
2022-12-02T16:20:42.433Z,3.82
2022-12-02T16:23:12.264Z,3.81
2022-12-02T16:25:41.744Z,3.81
2022-12-02T16:28:10.916Z,3.84
2022-12-02T16:30:39.921Z,3.86
2022-12-02T16:33:10.267Z,3.87
2022-12-02T16:35:39.336Z,3.85
2022-12-02T16:38:09.494Z,3.85
2022-12-02T16:40:40.361Z,3.88
2022-12-02T16:43:09.670Z,3.90
2022-12-02T16:45:39.255Z,3.89
2022-12-02T16:48:10.171Z,3.89
2022-12-02T16:50:40.360Z,3.88
2022-12-02T16:53:11.901Z,3.87
2022-12-02T16:55:41.750Z,3.90
2022-12-02T16:58:11.420Z,3.91
2022-12-02T17:00:41.363Z,3.91
2022-12-02T17:03:11.416Z,3.91
2022-12-02T17:05:40.629Z,3.92
2022-12-02T17:08:11.072Z,3.91
2022-12-02T17:10:40.480Z,3.91
2022-12-02T17:13:10.442Z,3.91
2022-12-02T17:15:39.377Z,3.90
2022-12-02T17:18:08.116Z,3.87
2022-12-02T17:20:38.508Z,3.83
2022-12-02T17:23:07.437Z,3.85
2022-12-02T17:25:38.405Z,3.82
2022-12-02T17:28:07.398Z,3.82
2022-12-02T17:30:37.499Z,3.77
2022-12-02T17:33:07.147Z,3.77
2022-12-02T17:35:35.744Z,3.78
2022-12-02T17:38:05.635Z,3.79
2022-12-02T17:40:36.164Z,3.78
2022-12-02T17:43:05.199Z,3.78
2022-12-02T17:45:34.811Z,3.81
2022-12-02T17:48:03.638Z,3.80
2022-12-02T17:50:32.584Z,3.83
2022-12-02T17:53:02.300Z,3.84
2022-12-02T17:55:31.430Z,3.84
2022-12-02T17:58:01.737Z,3.77
2022-12-02T18:00:31.821Z,3.77
2022-12-02T18:03:00.707Z,3.75
2022-12-02T18:05:30.175Z,3.72
2022-12-02T18:07:59.388Z,3.72
2022-12-02T18:10:29.211Z,3.69
2022-12-02T18:12:57.711Z,3.67
2022-12-02T18:15:28.472Z,3.66
2022-12-02T18:17:57.374Z,3.68
2022-12-02T18:20:26.366Z,3.70
2022-12-02T18:22:55.632Z,3.66
2022-12-02T18:25:25.648Z,3.63
2022-12-02T18:27:54.534Z,3.61
2022-12-02T18:30:23.392Z,3.58
2022-12-02T18:32:54.621Z,3.53
2022-12-02T18:35:23.639Z,3.54
2022-12-02T18:37:55.746Z,3.54
2022-12-02T18:40:25.883Z,3.54
2022-12-02T18:42:54.800Z,3.50
2022-12-02T18:45:23.923Z,3.51
2022-12-02T18:47:54.328Z,3.51
2022-12-02T18:50:24.020Z,3.49
2022-12-02T18:52:53.138Z,3.47
2022-12-02T18:55:22.333Z,3.45
2022-12-02T18:57:52.494Z,3.51
2022-12-02T19:00:23.233Z,3.48
2022-12-02T19:02:54.322Z,3.48
2022-12-02T19:05:23.443Z,3.47
2022-12-02T19:07:53.753Z,3.44
2022-12-02T19:10:27.331Z,3.44
2022-12-02T19:12:57.108Z,3.39
2022-12-02T19:15:26.520Z,3.34
2022-12-02T19:17:58.066Z,3.36
2022-12-02T19:20:28.559Z,3.26
2022-12-02T19:22:58.408Z,3.24
2022-12-02T19:25:29.132Z,3.20
2022-12-02T19:27:59.243Z,3.20
2022-12-02T19:30:30.237Z,3.19
2022-12-02T19:33:01.191Z,3.18
2022-12-02T19:35:31.829Z,3.14
2022-12-02T19:38:06.729Z,3.16
2022-12-02T19:40:44.737Z,3.18
2022-12-02T19:43:15.575Z,3.21
2022-12-02T19:45:45.731Z,3.21
2022-12-02T19:48:16.231Z,3.20
2022-12-02T19:50:45.818Z,3.17
2022-12-02T19:53:16.236Z,3.19
2022-12-02T19:55:46.501Z,3.22
2022-12-02T19:58:15.521Z,3.24
2022-12-02T20:00:45.351Z,3.21
2022-12-02T20:03:17.220Z,3.18
2022-12-02T20:05:46.518Z,3.22
2022-12-02T20:08:16.426Z,3.25
2022-12-02T20:10:46.142Z,3.26
2022-12-02T20:13:17.948Z,3.23
2022-12-02T20:15:52.381Z,3.24
2022-12-02T20:18:25.163Z,3.21
2022-12-02T20:20:55.289Z,3.22
2022-12-02T20:23:24.795Z,3.16
2022-12-02T20:25:53.824Z,3.16
2022-12-02T20:28:24.262Z,3.18
2022-12-02T20:30:54.453Z,3.14
2022-12-02T20:33:24.846Z,3.15
2022-12-02T20:35:54.162Z,3.18
2022-12-02T20:38:23.325Z,3.16
2022-12-02T20:40:53.021Z,3.17
2022-12-02T20:43:22.175Z,3.15
2022-12-02T20:45:52.092Z,3.13
2022-12-02T20:48:21.494Z,3.12
2022-12-02T20:50:52.285Z,3.16
2022-12-02T20:53:21.658Z,3.12
2022-12-02T20:55:51.991Z,3.11
2022-12-02T20:58:21.349Z,3.09
2022-12-02T21:00:51.987Z,3.08
2022-12-02T21:03:22.164Z,3.11
2022-12-02T21:05:52.994Z,3.13
2022-12-02T21:08:22.970Z,3.13
2022-12-02T21:10:52.339Z,3.12
2022-12-02T21:13:22.736Z,3.13
2022-12-02T21:15:53.690Z,3.11
2022-12-02T21:18:24.330Z,3.04
2022-12-02T21:20:54.846Z,3.04
2022-12-02T21:23:25.119Z,3.02
2022-12-02T21:25:55.170Z,3.04
2022-12-02T21:28:24.735Z,2.98
2022-12-02T21:30:54.194Z,2.97
2022-12-02T21:33:23.264Z,2.99
2022-12-02T21:35:54.465Z,2.98
2022-12-02T21:38:23.671Z,2.98
2022-12-02T21:40:55.398Z,2.98
2022-12-02T21:43:24.999Z,2.96
2022-12-02T21:45:53.982Z,2.89
2022-12-02T21:48:22.997Z,2.91
2022-12-02T21:50:54.144Z,2.93
2022-12-02T21:53:25.048Z,2.92
2022-12-02T21:55:54.313Z,2.90
2022-12-02T21:58:25.480Z,2.92
2022-12-02T22:01:14.896Z,2.89
2022-12-02T22:03:44.533Z,2.88
2022-12-02T22:06:15.751Z,2.89
2022-12-02T22:08:44.347Z,2.86
2022-12-02T22:11:14.293Z,2.88
2022-12-02T22:13:42.788Z,2.87
2022-12-02T22:16:12.831Z,2.88
2022-12-02T22:18:41.603Z,2.86
2022-12-02T22:21:11.208Z,2.81
2022-12-02T22:23:41.642Z,2.77
2022-12-02T22:26:14.898Z,2.73
2022-12-02T22:28:47.602Z,2.74
2022-12-02T22:31:17.376Z,2.75
2022-12-02T22:33:47.146Z,2.72
2022-12-02T22:36:17.237Z,2.71
2022-12-02T22:38:48.715Z,2.69
2022-12-02T22:41:18.712Z,2.69
2022-12-02T22:43:48.308Z,2.68
2022-12-02T22:46:18.280Z,2.64
2022-12-02T22:48:49.120Z,2.60
2022-12-02T22:51:19.136Z,2.66
2022-12-02T22:53:50.603Z,2.65
2022-12-02T22:56:20.961Z,2.57
2022-12-02T22:58:49.985Z,2.57
2022-12-02T23:01:18.814Z,2.51
2022-12-02T23:03:49.299Z,2.49
2022-12-02T23:06:17.945Z,2.52
2022-12-02T23:08:49.628Z,2.51
2022-12-02T23:11:18.973Z,2.53
2022-12-02T23:13:49.664Z,2.51
2022-12-02T23:16:18.835Z,2.52
2022-12-02T23:18:48.302Z,2.56
2022-12-02T23:21:17.585Z,2.56
2022-12-02T23:23:48.799Z,2.60
2022-12-02T23:26:18.287Z,2.63
2022-12-02T23:28:47.836Z,2.63
2022-12-02T23:31:17.635Z,2.65
2022-12-02T23:33:48.212Z,2.60
2022-12-02T23:36:17.477Z,2.51
2022-12-02T23:38:46.146Z,2.56
2022-12-02T23:41:17.717Z,2.58
2022-12-02T23:43:47.698Z,2.52
2022-12-02T23:46:17.070Z,2.51
2022-12-02T23:48:47.457Z,2.52
2022-12-02T23:51:21.076Z,2.51
2022-12-02T23:53:55.252Z,2.47
2022-12-02T23:56:25.937Z,2.46
2022-12-02T23:58:55.101Z,2.46
